Time;durP1;ratioP1;P1;durP2;ratioP2;P2;SDS_P1;SDS_P2;PMS_P1;PMS_P2;Temp;Humidity;BMP_temperature;BMP_pressure;BME280_temperature;BME280_humidity;BME280_pressure;Samples;Min_cycle;Max_cycle;Signal;HPM_P1;HPM_P2
2022/01/23 00:02:21;;;;;;;27.70;16.40;;;;;;;;;;4765254;30;20606;-85
2022/01/23 00:05:27;;;;;;;23.37;14.77;;;;;;;;;;4756113;30;20666;-87
2022/01/23 00:08:32;;;;;;;26.83;15.93;;;;;;;;;;4756848;30;20695;-87
2022/01/23 00:11:43;;;;;;;28.43;15.53;;;;;;;;;;4756809;30;20604;-87
2022/01/23 00:18:09;;;;;;;25.07;14.00;;;;;;;;;;4758270;30;20631;-85
2022/01/23 00:21:13;;;;;;;20.93;13.73;;;;;;;;;;4740506;30;20643;-85
2022/01/23 00:31:02;;;;;;;25.13;14.37;;;;;;;;;;4761038;30;20918;-85
2022/01/23 00:34:06;;;;;;;22.50;14.67;;;;;;;;;;4750664;30;20679;-85
2022/01/23 00:37:10;;;;;;;24.47;14.27;;;;;;;;;;4752895;30;20606;-87
2022/01/23 00:40:15;;;;;;;24.17;14.10;;;;;;;;;;4759498;30;20607;-87
2022/01/23 00:43:30;;;;;;;23.77;14.23;;;;;;;;;;4758778;30;20590;-85
2022/01/23 00:46:37;;;;;;;21.63;14.47;;;;;;;;;;4743923;30;21012;-86
2022/01/23 00:49:42;;;;;;;21.60;14.43;;;;;;;;;;4743401;30;20984;-87
2022/01/23 00:52:46;;;;;;;23.90;15.17;;;;;;;;;;4765696;30;20638;-87
2022/01/23 00:55:50;;;;;;;22.37;14.93;;;;;;;;;;4771117;30;20670;-87
2022/01/23 00:58:54;;;;;;;23.87;14.70;;;;;;;;;;4759520;30;20604;-86
2022/01/23 01:01:59;;;;;;;23.97;15.27;;;;;;;;;;4755163;30;20607;-86
2022/01/23 01:05:04;;;;;;;22.20;14.43;;;;;;;;;;4772527;30;20661;-85
2022/01/23 01:08:09;;;;;;;23.47;15.27;;;;;;;;;;4761335;30;20574;-86
2022/01/23 01:15:00;;;;;;;26.37;16.10;;;;;;;;;;4766452;30;20650;-87
2022/01/23 01:31:40;;;;;;;27.47;17.03;;;;;;;;;;4770558;30;20984;-87
2022/01/23 01:35:00;;;;;;;26.00;16.37;;;;;;;;;;4762426;30;20704;-87
2022/01/23 01:38:05;;;;;;;25.43;16.70;;;;;;;;;;4751703;30;20595;-87
2022/01/23 01:41:09;;;;;;;25.57;15.27;;;;;;;;;;4753072;30;20647;-87
2022/01/23 01:44:15;;;;;;;26.10;15.90;;;;;;;;;;4764669;30;20631;-87
2022/01/23 01:47:34;;;;;;;28.57;16.33;;;;;;;;;;4756017;30;20616;-87
2022/01/23 01:50:47;;;;;;;25.87;15.40;;;;;;;;;;4743859;30;20972;-87
2022/01/23 01:53:57;;;;;;;27.07;16.40;;;;;;;;;;4758765;30;20641;-87
2022/01/23 01:57:10;;;;;;;25.37;16.20;;;;;;;;;;4759364;30;20607;-87
2022/01/23 02:00:44;;;;;;;27.57;16.43;;;;;;;;;;4766921;30;21274;-87
2022/01/23 02:11:01;;;;;;;25.97;16.23;;;;;;;;;;4758897;30;20604;-87
2022/01/23 02:14:16;;;;;;;24.47;15.10;;;;;;;;;;4754457;30;20620;-87
2022/01/23 02:17:51;;;;;;;24.63;14.97;;;;;;;;;;4742679;30;20613;-86
2022/01/23 02:25:15;;;;;;;27.23;15.67;;;;;;;;;;4736589;30;20624;-87
2022/01/23 02:52:27;;;;;;;22.83;14.87;;;;;;;;;;4764609;30;20616;-87
2022/01/23 02:55:39;;;;;;;25.17;15.73;;;;;;;;;;4749851;30;20682;-87
2022/01/23 02:58:57;;;;;;;27.23;15.60;;;;;;;;;;4742462;30;20622;-87
2022/01/23 03:02:25;;;;;;;22.80;15.83;;;;;;;;;;4763254;30;20614;-86
2022/01/23 03:05:40;;;;;;;23.77;14.57;;;;;;;;;;4753656;30;20694;-87
2022/01/23 03:15:09;;;;;;;28.37;15.53;;;;;;;;;;4768562;30;21093;-87
2022/01/23 03:25:14;;;;;;;24.27;15.33;;;;;;;;;;4755935;30;21023;-87
2022/01/23 03:29:01;;;;;;;24.43;14.37;;;;;;;;;;4759967;30;21178;-87
2022/01/23 03:32:19;;;;;;;24.53;14.43;;;;;;;;;;4768630;30;21207;-87
2022/01/23 03:35:08;;;;;;;25.07;16.00;;;;;;;;;;4749956;30;21083;-87
2022/01/23 03:38:13;;;;;;;24.60;14.47;;;;;;;;;;4756172;30;20606;-87
2022/01/23 03:41:17;;;;;;;23.40;14.03;;;;;;;;;;4741509;30;20603;-87
2022/01/23 03:44:22;;;;;;;25.40;15.47;;;;;;;;;;4772469;30;20601;-87
2022/01/23 03:47:39;;;;;;;25.63;15.87;;;;;;;;;;4751568;30;20603;-87
2022/01/23 03:50:47;;;;;;;27.97;15.77;;;;;;;;;;4749985;30;20558;-86
2022/01/23 03:53:58;;;;;;;24.93;15.60;;;;;;;;;;4750111;30;20644;-87
2022/01/23 03:57:04;;;;;;;23.97;15.77;;;;;;;;;;4741681;30;20596;-87
2022/01/23 04:00:11;;;;;;;26.77;15.93;;;;;;;;;;4749523;30;20635;-87
2022/01/23 04:03:19;;;;;;;25.77;15.50;;;;;;;;;;4755158;30;20632;-87
2022/01/23 04:06:23;;;;;;;25.77;16.27;;;;;;;;;;4761559;29;20664;-87
2022/01/23 04:09:28;;;;;;;27.13;15.23;;;;;;;;;;4760314;30;20590;-87
2022/01/23 04:19:03;;;;;;;26.53;15.23;;;;;;;;;;4759738;30;20561;-87
2022/01/23 04:45:37;;;;;;;25.00;16.03;;;;;;;;;;4764552;30;21240;-87
2022/01/23 05:05:27;;;;;;;30.43;17.60;;;;;;;;;;4775716;24;20692;-84
2022/01/23 05:08:38;;;;;;;31.80;17.60;;;;;;;;;;4718206;30;21224;-83
2022/01/23 05:12:07;;;;;;;30.00;17.33;;;;;;;;;;4706363;30;20585;-83
2022/01/23 05:15:12;;;;;;;30.87;18.03;;;;;;;;;;4704817;30;21042;-83
2022/01/23 05:18:16;;;;;;;29.67;16.73;;;;;;;;;;4717899;30;20609;-83
2022/01/23 05:21:48;;;;;;;29.80;17.53;;;;;;;;;;4707426;30;20565;-83
2022/01/23 05:24:54;;;;;;;30.63;17.13;;;;;;;;;;4724671;30;20607;-83
2022/01/23 05:27:57;;;;;;;31.93;18.00;;;;;;;;;;4727267;30;20611;-83
2022/01/23 05:31:01;;;;;;;29.43;17.43;;;;;;;;;;4728393;30;20604;-83
2022/01/23 05:34:06;;;;;;;29.53;18.17;;;;;;;;;;4723132;30;20633;-83
2022/01/23 05:37:10;;;;;;;30.23;17.73;;;;;;;;;;4722585;30;20648;-84
2022/01/23 05:40:18;;;;;;;31.00;18.13;;;;;;;;;;4716489;30;21183;-84
2022/01/23 05:43:25;;;;;;;30.40;17.73;;;;;;;;;;4707017;30;20658;-83
2022/01/23 05:46:29;;;;;;;29.83;18.00;;;;;;;;;;4732030;30;20652;-83
2022/01/23 05:49:37;;;;;;;30.93;17.40;;;;;;;;;;4722499;30;20614;-83
2022/01/23 05:53:01;;;;;;;28.47;18.03;;;;;;;;;;4717420;30;20613;-83
2022/01/23 05:56:22;;;;;;;29.77;18.53;;;;;;;;;;4719828;30;20689;-83
2022/01/23 05:59:55;;;;;;;33.90;17.73;;;;;;;;;;4728962;30;20608;-84
2022/01/23 06:02:59;;;;;;;28.80;18.13;;;;;;;;;;4717054;30;20642;-83
2022/01/23 06:06:13;;;;;;;34.47;18.20;;;;;;;;;;4716862;30;20670;-83
2022/01/23 06:09:20;;;;;;;32.77;19.00;;;;;;;;;;4715594;30;20618;-83
2022/01/23 06:12:24;;;;;;;32.07;18.70;;;;;;;;;;4711359;30;20970;-84
2022/01/23 06:15:29;;;;;;;31.43;19.07;;;;;;;;;;4708502;30;20654;-84
2022/01/23 06:18:36;;;;;;;28.67;17.63;;;;;;;;;;4708673;30;20558;-84
2022/01/23 06:22:06;;;;;;;32.47;18.33;;;;;;;;;;4718606;30;20663;-84
2022/01/23 06:25:36;;;;;;;33.33;18.73;;;;;;;;;;4709449;30;21041;-84
2022/01/23 06:28:57;;;;;;;29.40;17.33;;;;;;;;;;4709420;30;20637;-86
2022/01/23 06:32:02;;;;;;;31.57;16.73;;;;;;;;;;4698643;30;20563;-85
2022/01/23 06:35:07;;;;;;;37.43;19.57;;;;;;;;;;4711040;30;20676;-85
2022/01/23 06:38:11;;;;;;;34.90;19.87;;;;;;;;;;4725207;30;20606;-85
2022/01/23 06:41:15;;;;;;;32.17;19.43;;;;;;;;;;4715410;30;20624;-85
2022/01/23 06:44:42;;;;;;;31.37;18.80;;;;;;;;;;4721533;30;20642;-85
2022/01/23 06:47:49;;;;;;;33.37;18.70;;;;;;;;;;4724994;30;20604;-84
2022/01/23 06:50:54;;;;;;;32.67;18.80;;;;;;;;;;4703513;30;20669;-84
2022/01/23 06:54:00;;;;;;;31.63;19.27;;;;;;;;;;4698482;30;20618;-84
2022/01/23 06:57:04;;;;;;;30.30;17.77;;;;;;;;;;4707698;30;20678;-85
2022/01/23 07:00:08;;;;;;;30.70;18.27;;;;;;;;;;4701905;30;20617;-84
2022/01/23 07:03:37;;;;;;;42.20;25.23;;;;;;;;;;4726658;30;20959;-84
2022/01/23 07:06:44;;;;;;;41.13;26.23;;;;;;;;;;4722093;30;20664;-84
2022/01/23 07:09:58;;;;;;;36.20;23.00;;;;;;;;;;4712837;30;20593;-84
2022/01/23 07:13:11;;;;;;;33.83;20.70;;;;;;;;;;4725416;30;20641;-84
2022/01/23 07:16:48;;;;;;;32.27;19.13;;;;;;;;;;4734783;30;20701;-84
2022/01/23 07:19:52;;;;;;;37.10;20.10;;;;;;;;;;4713202;30;20638;-84
2022/01/23 07:23:06;;;;;;;35.47;19.67;;;;;;;;;;4707636;30;20576;-84
2022/01/23 07:26:10;;;;;;;32.83;19.23;;;;;;;;;;4707357;30;20645;-84
2022/01/23 07:29:17;;;;;;;32.77;19.07;;;;;;;;;;4699263;30;21014;-84
2022/01/23 07:32:21;;;;;;;31.47;19.53;;;;;;;;;;4698749;30;20574;-84
2022/01/23 07:35:25;;;;;;;27.63;17.73;;;;;;;;;;4698055;30;20650;-84
2022/01/23 07:38:30;;;;;;;30.17;18.00;;;;;;;;;;4707530;30;20618;-84
2022/01/23 07:41:57;;;;;;;31.37;18.50;;;;;;;;;;4722650;30;21194;-84
2022/01/23 07:45:21;;;;;;;29.57;17.67;;;;;;;;;;4726779;30;21246;-84
2022/01/23 07:48:44;;;;;;;32.30;18.53;;;;;;;;;;4730684;30;20955;-85
2022/01/23 07:52:05;;;;;;;29.47;18.20;;;;;;;;;;4719662;30;20617;-84
2022/01/23 07:55:38;;;;;;;27.60;17.83;;;;;;;;;;4717996;30;20673;-84
2022/01/23 07:59:00;;;;;;;29.57;17.97;;;;;;;;;;4725016;30;20561;-84
2022/01/23 08:02:25;;;;;;;40.63;26.37;;;;;;;;;;4721497;30;20975;-84
2022/01/23 08:05:48;;;;;;;54.80;39.17;;;;;;;;;;4721060;30;20688;-87
2022/01/23 08:09:27;;;;;;;45.67;32.63;;;;;;;;;;4718771;30;20553;-86
2022/01/23 08:12:32;;;;;;;33.77;21.43;;;;;;;;;;4705292;30;20646;-86
2022/01/23 08:15:36;;;;;;;27.60;17.63;;;;;;;;;;4704297;30;20648;-86
2022/01/23 08:18:41;;;;;;;30.77;19.13;;;;;;;;;;4724399;30;20564;-86
2022/01/23 08:21:45;;;;;;;31.97;18.43;;;;;;;;;;4717699;30;20605;-86
2022/01/23 08:24:51;;;;;;;29.33;18.47;;;;;;;;;;4719835;30;20643;-86
2022/01/23 08:27:55;;;;;;;28.30;17.60;;;;;;;;;;4730936;30;20601;-86
2022/01/23 08:30:59;;;;;;;32.20;19.33;;;;;;;;;;4741414;30;21132;-85
2022/01/23 08:34:03;;;;;;;30.77;17.83;;;;;;;;;;4731756;30;20566;-86
2022/01/23 08:37:08;;;;;;;32.57;21.43;;;;;;;;;;4720271;30;20734;-86
2022/01/23 08:40:20;;;;;;;34.27;21.70;;;;;;;;;;4725187;30;20613;-86
2022/01/23 08:43:24;;;;;;;37.83;24.90;;;;;;;;;;4714191;30;20621;-86
2022/01/23 08:46:29;;;;;;;36.47;23.83;;;;;;;;;;4719626;30;20667;-86
2022/01/23 08:49:36;;;;;;;33.00;21.27;;;;;;;;;;4721777;30;20570;-86
2022/01/23 08:52:40;;;;;;;41.33;26.30;;;;;;;;;;4714964;30;20650;-86
2022/01/23 08:55:44;;;;;;;35.97;24.27;;;;;;;;;;4717658;30;20693;-86
2022/01/23 08:58:48;;;;;;;33.00;22.93;;;;;;;;;;4717458;30;20559;-86
2022/01/23 09:01:52;;;;;;;44.53;31.13;;;;;;;;;;4717463;30;20550;-85
2022/01/23 09:04:56;;;;;;;42.00;30.53;;;;;;;;;;4719789;30;20603;-85
2022/01/23 09:08:00;;;;;;;38.17;26.60;;;;;;;;;;4734785;30;20557;-85
2022/01/23 09:11:13;;;;;;;34.30;24.77;;;;;;;;;;4734260;30;20635;-85
2022/01/23 09:14:19;;;;;;;33.27;22.00;;;;;;;;;;4734835;30;20566;-85
2022/01/23 09:17:24;;;;;;;29.90;19.40;;;;;;;;;;4717114;30;20662;-85
2022/01/23 09:20:28;;;;;;;30.73;20.27;;;;;;;;;;4717226;30;20567;-85
2022/01/23 09:23:33;;;;;;;29.73;19.17;;;;;;;;;;4723839;30;20203;-85
2022/01/23 09:26:38;;;;;;;29.47;19.97;;;;;;;;;;4716452;30;21254;-85
2022/01/23 09:29:43;;;;;;;31.73;20.73;;;;;;;;;;4734410;30;21140;-85
2022/01/23 09:32:48;;;;;;;41.60;34.07;;;;;;;;;;4723936;30;20200;-85
2022/01/23 09:35:52;;;;;;;31.80;25.40;;;;;;;;;;4716421;30;20235;-85
2022/01/23 09:38:56;;;;;;;32.53;22.13;;;;;;;;;;4716926;30;20199;-85
2022/01/23 09:42:13;;;;;;;25.57;16.97;;;;;;;;;;4716875;30;20219;-85
2022/01/23 09:45:18;;;;;;;25.63;16.37;;;;;;;;;;4726841;30;20726;-85
2022/01/23 09:48:22;;;;;;;25.57;16.20;;;;;;;;;;4706822;30;20199;-85
2022/01/23 09:51:28;;;;;;;24.50;15.53;;;;;;;;;;4716496;30;20576;-85
2022/01/23 09:54:33;;;;;;;23.20;15.57;;;;;;;;;;4729210;30;20571;-84
2022/01/23 09:57:44;;;;;;;23.43;15.93;;;;;;;;;;4724088;30;20219;-84
2022/01/23 10:00:48;;;;;;;22.43;15.77;;;;;;;;;;4731462;30;20614;-85
2022/01/23 10:03:52;;;;;;;24.63;15.20;;;;;;;;;;4716105;30;20212;-85
2022/01/23 10:06:57;;;;;;;23.13;14.63;;;;;;;;;;4716163;30;20246;-84
2022/01/23 10:13:43;;;;;;;23.33;15.60;;;;;;;;;;4700669;30;20601;-85
2022/01/23 10:16:47;;;;;;;30.43;18.93;;;;;;;;;;4698717;30;20249;-85
2022/01/23 10:19:52;;;;;;;29.43;18.90;;;;;;;;;;4698969;30;20565;-84
2022/01/23 10:22:58;;;;;;;21.30;13.87;;;;;;;;;;4719131;30;20192;-85
2022/01/23 10:26:04;;;;;;;27.03;17.97;;;;;;;;;;4698987;30;20236;-85
2022/01/23 10:29:20;;;;;;;24.20;15.27;;;;;;;;;;4698764;30;20197;-85
2022/01/23 10:32:25;;;;;;;22.83;14.77;;;;;;;;;;4708979;30;20203;-84
2022/01/23 10:35:30;;;;;;;23.20;15.13;;;;;;;;;;4708405;30;20741;-85
2022/01/23 10:38:41;;;;;;;22.67;14.07;;;;;;;;;;4708514;30;20237;-85
2022/01/23 10:41:59;;;;;;;20.50;13.97;;;;;;;;;;4708517;30;20200;-85
2022/01/23 10:48:35;;;;;;;21.63;15.13;;;;;;;;;;4718436;30;20219;-84
2022/01/23 10:51:39;;;;;;;19.47;13.13;;;;;;;;;;4708279;30;20229;-87
2022/01/23 10:54:43;;;;;;;20.20;13.60;;;;;;;;;;4723951;30;20212;-84
2022/01/23 10:57:50;;;;;;;20.97;13.27;;;;;;;;;;4727240;30;20227;-86
2022/01/23 11:01:05;;;;;;;21.23;12.60;;;;;;;;;;4698485;30;20192;-84
2022/01/23 11:04:14;;;;;;;21.10;13.80;;;;;;;;;;4698202;30;20221;-84
2022/01/23 11:07:19;;;;;;;22.13;12.63;;;;;;;;;;4821544;25;20252;-90
2022/01/23 11:10:23;;;;;;;20.80;12.10;;;;;;;;;;4758702;30;20577;-90
2022/01/23 11:20:40;;;;;;;20.23;12.60;;;;;;;;;;4732743;30;20208;-91
2022/01/23 11:23:54;;;;;;;18.90;12.20;;;;;;;;;;4732885;30;20206;-90
2022/01/23 11:27:02;;;;;;;21.07;12.90;;;;;;;;;;4743811;30;20716;-92
2022/01/23 11:30:13;;;;;;;18.83;11.83;;;;;;;;;;4733017;30;20218;-90
2022/01/23 11:33:18;;;;;;;18.53;11.40;;;;;;;;;;4722958;30;20204;-91
2022/01/23 11:36:22;;;;;;;16.33;10.77;;;;;;;;;;4727828;30;20234;-90
2022/01/23 11:39:45;;;;;;;17.23;10.83;;;;;;;;;;4748208;30;20237;-90
2022/01/23 11:56:48;;;;;;;49.87;22.23;;;;;;;;;;4745812;30;20241;-89
2022/01/23 12:00:22;;;;;;;25.27;14.30;;;;;;;;;;4740527;30;20695;-89
2022/01/23 12:03:27;;;;;;;15.70;10.37;;;;;;;;;;4757651;30;20202;-89
2022/01/23 12:06:32;;;;;;;13.77;8.93;;;;;;;;;;4722831;30;20246;-89
2022/01/23 12:09:37;;;;;;;15.37;10.13;;;;;;;;;;4722376;30;20195;-90
2022/01/23 12:12:47;;;;;;;16.60;10.20;;;;;;;;;;4736370;30;20213;-90
2022/01/23 12:19:24;;;;;;;17.17;10.00;;;;;;;;;;4745239;30;20257;-90
2022/01/23 12:22:40;;;;;;;12.13;8.57;;;;;;;;;;4741405;30;20214;-90
2022/01/23 12:25:47;;;;;;;12.20;8.43;;;;;;;;;;4739659;30;20229;-90
2022/01/23 12:28:52;;;;;;;12.50;8.93;;;;;;;;;;4763182;30;20186;-90
2022/01/23 12:32:18;;;;;;;12.47;8.87;;;;;;;;;;4742667;30;20202;-90
2022/01/23 12:35:37;;;;;;;14.40;9.50;;;;;;;;;;4742921;30;20198;-90
2022/01/23 12:38:46;;;;;;;14.60;10.17;;;;;;;;;;4742994;30;20679;-90
2022/01/23 12:41:59;;;;;;;15.80;10.83;;;;;;;;;;4742538;30;20222;-90
2022/01/23 12:45:03;;;;;;;14.23;8.97;;;;;;;;;;4749189;30;20218;-90
2022/01/23 12:48:26;;;;;;;14.93;9.53;;;;;;;;;;4735110;30;20210;-91
2022/01/23 12:51:33;;;;;;;12.07;8.37;;;;;;;;;;4740828;30;20556;-91
2022/01/23 12:54:46;;;;;;;12.00;8.77;;;;;;;;;;4752887;30;20190;-90
2022/01/23 12:58:02;;;;;;;14.43;10.17;;;;;;;;;;4742551;30;20218;-91
2022/01/23 13:01:22;;;;;;;15.93;9.33;;;;;;;;;;4741761;30;20221;-91
2022/01/23 13:04:32;;;;;;;15.50;10.30;;;;;;;;;;4752362;30;20202;-91
2022/01/23 13:08:18;;;;;;;13.70;9.30;;;;;;;;;;4742714;30;20714;-90
2022/01/23 13:14:11;;;;;;;12.30;8.03;;;;;;;;;;4757917;30;20587;-90
2022/01/23 13:30:30;;;;;;;13.90;9.07;;;;;;;;;;4755588;30;20195;-90
2022/01/23 13:33:38;;;;;;;13.17;8.90;;;;;;;;;;4734604;30;20199;-90
2022/01/23 13:36:56;;;;;;;11.50;8.47;;;;;;;;;;4724253;30;20230;-90
2022/01/23 13:40:07;;;;;;;12.73;8.90;;;;;;;;;;4733681;30;20183;-90
2022/01/23 13:53:10;;;;;;;14.87;9.57;;;;;;;;;;4734615;30;20191;-90
2022/01/23 14:00:14;;;;;;;13.67;9.57;;;;;;;;;;4736026;30;20227;-90
2022/01/23 14:03:18;;;;;;;15.67;9.43;;;;;;;;;;4737029;30;20191;-90
2022/01/23 14:06:25;;;;;;;15.27;9.93;;;;;;;;;;4736805;30;20242;-90
2022/01/23 14:09:43;;;;;;;12.50;8.37;;;;;;;;;;4737320;30;20580;-90
2022/01/23 14:12:50;;;;;;;13.97;8.90;;;;;;;;;;4726211;30;20195;-90
2022/01/23 14:15:55;;;;;;;12.43;8.23;;;;;;;;;;4726249;30;20235;-90
2022/01/23 14:19:26;;;;;;;12.93;8.53;;;;;;;;;;4736431;30;20223;-90
2022/01/23 14:22:34;;;;;;;13.27;8.90;;;;;;;;;;4736099;30;20199;-90
2022/01/23 14:25:44;;;;;;;23.43;13.87;;;;;;;;;;4736445;30;20699;-90
2022/01/23 14:28:51;;;;;;;69.90;36.57;;;;;;;;;;4736314;30;20194;-91
2022/01/23 14:32:18;;;;;;;23.53;14.60;;;;;;;;;;4735813;30;20198;-90
2022/01/23 14:35:27;;;;;;;18.00;11.20;;;;;;;;;;4725772;30;20211;-90
2022/01/23 14:38:32;;;;;;;15.60;9.90;;;;;;;;;;4735494;30;20226;-90
2022/01/23 14:41:41;;;;;;;15.70;10.10;;;;;;;;;;4735533;30;20191;-90
2022/01/23 14:44:45;;;;;;;14.93;9.67;;;;;;;;;;4743667;30;20697;-88
2022/01/23 14:47:50;;;;;;;15.33;10.43;;;;;;;;;;4738539;30;20199;-89
2022/01/23 14:51:02;;;;;;;15.03;9.20;;;;;;;;;;4751915;30;20215;-89
2022/01/23 14:54:06;;;;;;;13.03;8.33;;;;;;;;;;4761202;30;20187;-89
2022/01/23 14:57:14;;;;;;;13.53;9.13;;;;;;;;;;4765534;30;20230;-90
2022/01/23 15:00:19;;;;;;;12.10;8.13;;;;;;;;;;4737636;30;20203;-89
2022/01/23 15:03:27;;;;;;;13.37;8.57;;;;;;;;;;4735621;30;20199;-89
2022/01/23 15:06:32;;;;;;;13.13;8.07;;;;;;;;;;4738140;30;20234;-89
2022/01/23 15:09:36;;;;;;;14.57;8.80;;;;;;;;;;4742977;30;20194;-89
2022/01/23 15:12:40;;;;;;;12.63;8.43;;;;;;;;;;4742352;30;20563;-88
2022/01/23 15:15:46;;;;;;;15.27;8.63;;;;;;;;;;4741269;30;20239;-89
2022/01/23 15:18:50;;;;;;;13.43;8.63;;;;;;;;;;4742181;30;20701;-89
2022/01/23 15:21:55;;;;;;;13.87;8.97;;;;;;;;;;4742167;30;20214;-88
2022/01/23 15:25:24;;;;;;;14.83;9.60;;;;;;;;;;4745962;30;20560;-88
2022/01/23 15:28:28;;;;;;;14.20;8.30;;;;;;;;;;4739864;30;20201;-89
2022/01/23 15:31:33;;;;;;;14.23;8.53;;;;;;;;;;4728023;30;20202;-90
2022/01/23 15:34:38;;;;;;;14.60;8.80;;;;;;;;;;4725455;30;20556;-90
2022/01/23 15:37:42;;;;;;;14.47;8.67;;;;;;;;;;4733065;30;20652;-91
2022/01/23 15:40:49;;;;;;;13.47;8.87;;;;;;;;;;4744439;30;20202;-90
2022/01/23 15:43:53;;;;;;;13.20;8.53;;;;;;;;;;4740127;30;20195;-91
2022/01/23 15:46:57;;;;;;;15.53;9.20;;;;;;;;;;4732007;30;20233;-91
2022/01/23 15:50:03;;;;;;;15.67;9.57;;;;;;;;;;4748884;30;20202;-90
2022/01/23 15:53:07;;;;;;;16.00;9.80;;;;;;;;;;4760087;30;20643;-91
2022/01/23 15:56:12;;;;;;;15.43;9.67;;;;;;;;;;4739365;30;20230;-90
2022/01/23 15:59:17;;;;;;;13.70;9.13;;;;;;;;;;4722317;30;20231;-91
2022/01/23 16:02:21;;;;;;;12.87;8.27;;;;;;;;;;4731632;30;20195;-90
2022/01/23 16:05:26;;;;;;;13.97;8.67;;;;;;;;;;4732099;30;20235;-91
2022/01/23 16:08:30;;;;;;;15.03;9.90;;;;;;;;;;4722297;30;20195;-91
2022/01/23 16:11:34;;;;;;;15.97;10.10;;;;;;;;;;4722277;30;20214;-91
2022/01/23 16:14:38;;;;;;;15.50;9.97;;;;;;;;;;4724272;30;20563;-90
2022/01/23 16:17:44;;;;;;;16.83;10.30;;;;;;;;;;4745448;30;20215;-91
2022/01/23 16:20:48;;;;;;;18.47;9.90;;;;;;;;;;4724221;30;20203;-90
2022/01/23 16:23:53;;;;;;;15.13;9.70;;;;;;;;;;4733640;30;20194;-90
2022/01/23 16:26:58;;;;;;;16.03;9.67;;;;;;;;;;4749407;30;20230;-90
2022/01/23 16:30:05;;;;;;;15.97;10.00;;;;;;;;;;4731686;30;20540;-91
2022/01/23 16:33:09;;;;;;;16.10;10.20;;;;;;;;;;4728005;30;20604;-90
2022/01/23 16:36:14;;;;;;;15.43;9.63;;;;;;;;;;4746451;30;20241;-91
2022/01/23 16:39:18;;;;;;;14.17;9.07;;;;;;;;;;4741110;30;20226;-87
2022/01/23 16:42:22;;;;;;;13.37;8.70;;;;;;;;;;4770661;30;20198;-89
2022/01/23 16:45:27;;;;;;;16.10;9.73;;;;;;;;;;4749869;30;20238;-89
2022/01/23 16:48:31;;;;;;;15.20;9.70;;;;;;;;;;4733990;30;20207;-89
2022/01/23 16:51:38;;;;;;;13.17;8.73;;;;;;;;;;4731845;30;20199;-90
2022/01/23 16:54:43;;;;;;;15.33;9.13;;;;;;;;;;4732306;30;20187;-91
2022/01/23 16:57:48;;;;;;;15.30;9.43;;;;;;;;;;4722291;30;20203;-90
2022/01/23 17:00:52;;;;;;;16.27;9.93;;;;;;;;;;4722164;30;20226;-88
